Time;durP1;ratioP1;P1;durP2;ratioP2;P2;SDS_P1;SDS_P2;PMS_P1;PMS_P2;Temp;Humidity;BMP_temperature;BMP_pressure;BME280_temperature;BME280_humidity;BME280_pressure;Samples;Min_cycle;Max_cycle;Signal;HPM_P1;HPM_P2
2021/12/30 00:01:04;;;;;;;23.87;10.23;;;;;;;-9.43;64.84;100438.41;6107586;23;20029;-77
2021/12/30 00:03:30;;;;;;;23.73;9.73;;;;;;;-9.40;64.66;100424.41;6101773;23;20025;-81
2021/12/30 00:05:56;;;;;;;21.07;9.37;;;;;;;-9.59;64.66;100400.97;6099663;23;20026;-79
2021/12/30 00:08:23;;;;;;;32.63;10.93;;;;;;;-9.35;65.57;100414.69;6099029;23;20022;-81
2021/12/30 00:10:51;;;;;;;21.27;9.43;;;;;;;-9.14;64.88;100419.69;6100186;23;20066;-80
2021/12/30 00:13:17;;;;;;;27.93;10.43;;;;;;;-8.98;64.97;100426.84;6099036;23;20026;-80
2021/12/30 00:15:42;;;;;;;28.27;9.67;;;;;;;-9.15;63.53;100421.31;6100186;23;20026;-80
2021/12/30 00:18:10;;;;;;;24.57;9.40;;;;;;;-9.25;65.22;100396.16;6074513;23;20018;-80
2021/12/30 00:20:37;;;;;;;24.33;9.90;;;;;;;-9.07;64.88;100404.31;6074309;23;20042;-79
2021/12/30 00:23:06;;;;;;;29.50;9.93;;;;;;;-9.01;65.35;100386.25;6050292;23;20042;-80
2021/12/30 00:25:38;;;;;;;26.63;9.53;;;;;;;-8.79;63.85;100432.56;6098204;23;20312;-79
2021/12/30 00:28:08;;;;;;;;;;;;;;;-8.97;64.16;100433.66;6100007;23;20497;-78
2021/12/30 00:30:34;;;;;;;20.93;8.73;;;;;;;-9.15;65.24;100388.53;6099745;23;19913;-80
2021/12/30 00:33:00;;;;;;;25.17;8.83;;;;;;;-9.01;64.95;100394.66;6073707;23;20417;-79
2021/12/30 00:35:26;;;;;;;29.10;10.33;;;;;;;-8.72;65.25;100425.50;6050937;23;20030;-80
2021/12/30 00:37:52;;;;;;;24.83;10.20;;;;;;;-8.65;65.34;100412.56;6073456;23;20025;-80
2021/12/30 00:40:18;;;;;;;23.23;9.53;;;;;;;-8.51;64.18;100427.16;6097516;23;20318;-80
2021/12/30 00:42:43;;;;;;;25.70;10.53;;;;;;;-8.55;64.66;100412.53;6073689;23;20377;-80
2021/12/30 00:45:09;;;;;;;31.13;11.03;;;;;;;-8.66;64.69;100431.00;6100288;23;20029;-79
2021/12/30 00:47:36;;;;;;;28.03;11.00;;;;;;;-8.64;64.40;100424.44;6100486;23;20488;-80
2021/12/30 00:50:03;;;;;;;27.80;10.37;;;;;;;-8.56;64.98;100438.53;6116420;23;20029;-79
2021/12/30 00:52:29;;;;;;;24.87;9.80;;;;;;;-8.45;64.74;100428.34;6087236;23;20188;-79
2021/12/30 00:54:56;;;;;;;31.43;11.13;;;;;;;-8.45;64.99;100405.63;6098780;23;20019;-78
2021/12/30 00:57:22;;;;;;;25.67;10.20;;;;;;;-8.51;64.89;100388.41;6101744;23;20014;-80
2021/12/30 00:59:48;;;;;;;27.27;10.90;;;;;;;-8.25;64.26;100425.69;6100159;23;20025;-80
2021/12/30 01:02:14;;;;;;;33.83;11.03;;;;;;;-8.38;63.72;100425.53;6099597;23;20097;-81
2021/12/30 01:04:40;;;;;;;26.93;9.73;;;;;;;-8.79;64.03;100414.00;6099774;23;20041;-79
2021/12/30 01:07:06;;;;;;;23.30;9.80;;;;;;;-8.86;64.59;100405.09;6104697;23;20317;-80
2021/12/30 01:09:32;;;;;;;27.47;10.00;;;;;;;-8.49;64.71;100425.59;6078170;23;20070;-81
2021/12/30 01:11:59;;;;;;;22.03;8.60;;;;;;;-9.05;62.14;100411.97;6077510;23;20046;-80
2021/12/30 01:14:29;;;;;;;29.67;10.37;;;;;;;-9.38;64.42;100402.72;6104114;23;20022;-81
2021/12/30 01:16:59;;;;;;;26.53;9.97;;;;;;;-9.54;63.05;100403.13;6101753;23;20046;-81
2021/12/30 01:21:53;;;;;;;24.17;9.50;;;;;;;-9.70;63.12;100426.19;6073993;23;20476;-81
2021/12/30 01:24:20;;;;;;;28.87;11.30;;;;;;;-9.86;64.84;100420.66;6097483;23;20464;-80
2021/12/30 01:26:46;;;;;;;28.17;10.23;;;;;;;-10.00;64.60;100394.34;6097955;23;20018;-81
2021/12/30 01:29:12;;;;;;;25.20;10.47;;;;;;;-9.62;65.08;100408.31;6100055;23;20018;-82
2021/12/30 01:31:38;;;;;;;24.87;10.30;;;;;;;-9.77;64.39;100402.91;6098246;23;20025;-80
2021/12/30 01:34:04;;;;;;;25.57;9.33;;;;;;;-9.77;63.93;100398.72;6097863;23;20452;-80
2021/12/30 01:36:30;;;;;;;26.60;10.17;;;;;;;-9.82;65.34;100387.41;6097267;23;20024;-80
2021/12/30 01:38:56;;;;;;;24.50;9.47;;;;;;;-9.56;65.18;100383.59;6099176;23;20106;-79
2021/12/30 01:41:22;;;;;;;27.40;10.63;;;;;;;-9.46;65.21;100376.03;6073870;23;20417;-80
2021/12/30 01:43:49;;;;;;;24.97;9.40;;;;;;;-9.63;63.27;100393.94;6098351;23;20100;-80
2021/12/30 01:46:15;;;;;;;27.83;10.20;;;;;;;-10.11;63.50;100365.75;6051401;23;20029;-81
2021/12/30 01:48:42;;;;;;;25.27;9.60;;;;;;;-9.99;63.86;100417.13;6098726;23;20192;-80
2021/12/30 01:51:09;;;;;;;25.97;9.47;;;;;;;-9.87;65.54;100417.25;6098680;23;20113;-79
2021/12/30 01:53:36;;;;;;;24.63;9.97;;;;;;;-9.52;64.90;100408.28;6099993;23;20026;-79
2021/12/30 01:56:04;;;;;;;26.90;10.27;;;;;;;-9.49;65.52;100368.22;6074555;23;20057;-80
2021/12/30 01:58:31;;;;;;;27.73;10.20;;;;;;;-9.08;65.72;100407.59;6113985;23;20022;-79
2021/12/30 02:00:57;;;;;;;28.87;10.63;;;;;;;-9.07;65.62;100409.34;6114899;23;20018;-80
2021/12/30 02:03:23;;;;;;;24.83;9.63;;;;;;;-8.87;65.93;100408.38;6115113;23;20018;-79
2021/12/30 02:05:49;;;;;;;21.30;8.87;;;;;;;-8.68;65.67;100399.72;6121834;23;20010;-78
2021/12/30 02:08:18;;;;;;;33.67;12.57;;;;;;;-8.50;65.68;100398.63;6120315;23;20105;-78
2021/12/30 02:10:47;;;;;;;24.70;10.30;;;;;;;-8.59;65.27;100392.88;6095880;23;20002;-79
2021/12/30 02:13:19;;;;;;;26.30;10.30;;;;;;;-8.73;64.70;100394.31;6108592;23;20014;-78
2021/12/30 02:15:45;;;;;;;24.45;9.25;;;;;;;-8.68;65.31;100390.50;6109917;23;20022;-79
2021/12/30 02:18:11;;;;;;;29.80;10.53;;;;;;;-8.73;64.16;100388.41;6106581;23;20014;-79
2021/12/30 02:20:43;;;;;;;21.17;10.13;;;;;;;-9.06;63.71;100410.22;6084777;23;20477;-81
2021/12/30 02:23:09;;;;;;;24.57;10.30;;;;;;;-9.30;63.13;100403.34;6109641;23;20078;-80
2021/12/30 02:25:35;;;;;;;30.00;10.13;;;;;;;-9.53;64.63;100378.81;6108188;23;20028;-78
2021/12/30 02:28:06;;;;;;;28.53;10.53;;;;;;;-9.31;64.44;100413.28;6120725;23;20062;-79
2021/12/30 02:30:32;;;;;;;29.67;10.57;;;;;;;-9.16;65.52;100390.94;6121014;23;20044;-79
2021/12/30 02:32:58;;;;;;;26.43;10.73;;;;;;;-9.00;65.61;100385.47;6121674;23;20002;-79
2021/12/30 02:35:24;;;;;;;29.40;10.60;;;;;;;-8.67;65.69;100397.31;6121167;23;20054;-81
2021/12/30 02:37:50;;;;;;;25.83;9.93;;;;;;;-8.59;65.19;100377.72;6120559;23;20073;-80
2021/12/30 02:40:27;;;;;;;27.57;11.13;;;;;;;-8.60;65.44;100387.72;6082743;23;20329;-82
2021/12/30 02:42:54;;;;;;;32.53;10.90;;;;;;;-8.45;65.52;100380.38;6097845;23;20464;-82
2021/12/30 02:45:21;;;;;;;29.23;11.30;;;;;;;-8.48;64.92;100376.84;6099773;23;20028;-79
2021/12/30 02:47:47;;;;;;;24.40;10.13;;;;;;;-8.70;64.76;100353.28;6108698;23;20017;-82
2021/12/30 02:50:13;;;;;;;30.77;11.03;;;;;;;-8.66;64.75;100372.94;6098779;23;20037;-79
2021/12/30 02:52:39;;;;;;;25.60;10.53;;;;;;;-8.66;65.40;100355.28;6100566;23;20018;-79
2021/12/30 02:55:05;;;;;;;27.37;10.03;;;;;;;-8.69;64.30;100350.00;6073589;23;20045;-79
2021/12/30 02:57:31;;;;;;;25.87;10.47;;;;;;;-8.65;65.59;100383.19;6098717;23;20034;-79
2021/12/30 02:59:57;;;;;;;29.33;10.43;;;;;;;-8.94;64.28;100341.44;6097257;23;20049;-79
2021/12/30 03:02:23;;;;;;;28.43;11.40;;;;;;;-8.93;64.62;100359.94;6097128;23;20018;-79
2021/12/30 03:04:49;;;;;;;25.43;11.30;;;;;;;-8.75;65.96;100385.75;6074440;23;20111;-80
2021/12/30 03:07:18;;;;;;;28.37;11.90;;;;;;;-8.63;64.67;100385.81;6113474;23;20022;-80
2021/12/30 03:09:45;;;;;;;27.50;10.90;;;;;;;-8.74;65.15;100376.53;6110655;23;20490;-81
2021/12/30 03:12:11;;;;;;;34.10;12.63;;;;;;;-8.87;64.37;100355.38;6074011;23;20018;-81
2021/12/30 03:14:41;;;;;;;35.50;13.00;;;;;;;-8.75;65.37;100370.59;6096970;23;20015;-79
2021/12/30 03:17:07;;;;;;;36.33;12.27;;;;;;;-8.81;65.48;100352.44;6099229;23;20022;-82
2021/12/30 03:19:33;;;;;;;36.33;13.87;;;;;;;-8.71;65.98;100319.59;6106037;23;20082;-79
2021/12/30 03:21:59;;;;;;;35.03;12.70;;;;;;;-8.66;65.22;100319.94;6105777;23;20060;-78
2021/12/30 03:24:24;;;;;;;29.70;11.88;;;;;;;-8.32;65.84;100363.75;6076228;23;20089;-81
2021/12/30 03:26:50;;;;;;;34.97;12.18;;;;;;;-8.96;64.87;100294.16;6098267;23;20022;-81
2021/12/30 03:29:16;;;;;;;34.40;12.40;;;;;;;-8.59;65.66;100337.34;6072226;23;20010;-79
2021/12/30 03:31:42;;;;;;;27.97;11.83;;;;;;;-8.50;65.21;100362.38;6096290;23;20019;-81
2021/12/30 03:34:08;;;;;;;27.03;11.57;;;;;;;-8.59;64.62;100356.63;6096363;23;20018;-80
2021/12/30 03:36:34;;;;;;;28.97;11.30;;;;;;;-8.80;65.58;100357.63;6072554;23;20025;-80
2021/12/30 03:39:01;;;;;;;29.17;10.77;;;;;;;-8.74;65.03;100342.09;6072668;23;20069;-81
2021/12/30 03:41:28;;;;;;;25.50;9.63;;;;;;;-8.61;65.98;100335.47;6097529;23;20029;-78
2021/12/30 03:43:57;;;;;;;26.73;11.20;;;;;;;-8.37;66.10;100349.03;6095897;23;20368;-77
2021/12/30 03:46:23;;;;;;;32.63;12.60;;;;;;;-8.44;64.98;100356.88;6096817;23;20464;-82
2021/12/30 03:48:49;;;;;;;32.40;12.33;;;;;;;-8.59;65.50;100344.91;6073430;23;20014;-80
2021/12/30 03:51:22;;;;;;;29.40;13.13;;;;;;;-8.27;66.15;100368.28;6099151;23;20022;-79
2021/12/30 03:53:56;;;;;;;25.93;10.47;;;;;;;-8.17;66.08;100358.97;6073886;23;20025;-79
2021/12/30 03:56:26;;;;;;;30.85;11.48;;;;;;;-8.39;64.30;100348.91;6097699;23;20025;-80
2021/12/30 03:58:52;;;;;;;32.23;12.57;;;;;;;-8.43;64.82;100358.66;6097490;23;20144;-78
2021/12/30 04:01:21;;;;;;;31.80;12.93;;;;;;;-8.43;65.02;100361.16;6096473;23;20030;-80
2021/12/30 04:03:47;;;;;;;33.90;12.82;;;;;;;-8.52;64.98;100356.34;6071360;23;20091;-79
2021/12/30 04:06:14;;;;;;;30.27;11.87;;;;;;;-8.43;65.96;100349.44;6098162;23;20022;-81
2021/12/30 04:08:40;;;;;;;31.17;11.13;;;;;;;-8.23;66.01;100343.34;6095815;23;20022;-79
2021/12/30 04:11:06;;;;;;;26.77;10.65;;;;;;;-8.22;66.17;100312.28;6098938;23;20026;-79
2021/12/30 04:13:33;;;;;;;27.47;11.93;;;;;;;-8.37;64.34;100338.91;6072372;23;20014;-79
2021/12/30 04:15:59;;;;;;;27.73;10.93;;;;;;;-8.32;66.25;100348.59;6112021;23;20028;-79
2021/12/30 04:18:26;;;;;;;27.37;11.13;;;;;;;-8.33;65.64;100320.72;6112880;23;20022;-81
2021/12/30 04:20:51;;;;;;;27.95;11.18;;;;;;;-8.13;66.11;100312.09;6074184;23;20023;-80
2021/12/30 04:23:17;;;;;;;31.75;11.05;;;;;;;-8.03;65.56;100326.28;6096397;23;20421;-79
2021/12/30 04:25:43;;;;;;;25.87;10.60;;;;;;;-8.17;66.06;100285.72;6097027;23;20021;-81
2021/12/30 04:28:09;;;;;;;28.52;11.25;;;;;;;-7.94;65.40;100331.16;6098344;23;20018;-79
2021/12/30 04:30:37;;;;;;;24.23;10.23;;;;;;;-8.14;65.28;100300.22;6099399;23;20018;-77
2021/12/30 04:33:04;;;;;;;24.02;10.18;;;;;;;-8.05;64.78;100333.75;6099867;23;20132;-81
2021/12/30 04:35:31;;;;;;;24.13;10.67;;;;;;;-8.39;64.55;100340.44;6096170;23;20022;-81
2021/12/30 04:37:57;;;;;;;25.98;11.63;;;;;;;-8.35;65.97;100323.13;6098179;23;20480;-79
2021/12/30 04:40:22;;;;;;;30.30;11.30;;;;;;;-8.37;65.76;100280.84;6071832;23;20033;-79
2021/12/30 04:42:48;;;;;;;28.53;11.67;;;;;;;-8.38;65.25;100327.06;6072992;23;20365;-79
2021/12/30 04:45:14;;;;;;;29.60;11.13;;;;;;;-8.48;65.29;100295.22;6073956;23;20022;-78
2021/12/30 04:47:41;;;;;;;28.23;12.53;;;;;;;-8.40;66.34;100311.81;6098554;23;20070;-81
2021/12/30 04:50:11;;;;;;;29.67;12.30;;;;;;;-8.22;65.56;100324.91;6101174;23;20116;-79
2021/12/30 04:52:37;;;;;;;34.70;14.20;;;;;;;-8.05;65.57;100341.34;6101366;23;20078;-81
2021/12/30 04:55:05;;;;;;;30.90;12.30;;;;;;;-8.09;65.62;100346.91;6074098;23;20025;-80
2021/12/30 04:57:31;;;;;;;36.83;13.67;;;;;;;-8.13;65.16;100346.59;6098708;23;20018;-79
2021/12/30 04:59:56;;;;;;;33.00;13.10;;;;;;;-8.05;65.95;100345.47;6073962;23;20510;-79
2021/12/30 05:02:26;;;;;;;29.57;12.97;;;;;;;-7.95;64.86;100345.41;6099977;23;20543;-80
2021/12/30 05:04:52;;;;;;;39.90;14.53;;;;;;;-7.84;66.12;100343.69;6050164;23;20059;-81
2021/12/30 05:07:18;;;;;;;41.60;14.20;;;;;;;-8.08;64.52;100348.69;6098471;23;20029;-79
2021/12/30 05:09:44;;;;;;;38.90;14.40;;;;;;;-8.26;65.29;100343.13;6101679;23;20022;-79
2021/12/30 05:12:11;;;;;;;42.47;14.45;;;;;;;-8.43;64.73;100348.56;6055159;23;20029;-80
2021/12/30 05:14:36;;;;;;;37.87;15.30;;;;;;;-8.73;65.02;100331.22;6101564;23;20064;-79
2021/12/30 05:17:03;;;;;;;40.47;13.93;;;;;;;-8.78;65.75;100338.44;6076369;23;20038;-80
2021/12/30 05:19:30;;;;;;;36.57;13.63;;;;;;;-8.83;65.23;100342.25;6102578;23;20440;-79
2021/12/30 05:21:57;;;;;;;29.90;13.33;;;;;;;-8.88;65.77;100314.91;6103449;23;20029;-79
2021/12/30 05:24:23;;;;;;;28.40;12.37;;;;;;;-8.69;65.67;100325.66;6086434;23;20038;-78
2021/12/30 05:27:22;;;;;;;26.90;11.27;;;;;;;-8.71;65.23;100342.31;6092670;23;20026;-81
2021/12/30 05:29:48;;;;;;;32.47;12.10;;;;;;;-8.93;66.31;100289.31;6103634;23;20037;-79
2021/12/30 05:32:14;;;;;;;32.03;11.97;;;;;;;-8.47;66.99;100310.44;6103626;23;20018;-79
2021/12/30 05:34:39;;;;;;;30.80;11.88;;;;;;;-8.54;65.26;100312.44;6103998;23;20042;-80
2021/12/30 05:37:05;;;;;;;30.80;12.70;;;;;;;-8.47;66.28;100305.41;6078863;23;20022;-79
2021/12/30 05:39:35;;;;;;;32.33;12.47;;;;;;;-8.22;66.66;100294.59;6101849;23;20029;-79
2021/12/30 05:42:01;;;;;;;28.57;13.13;;;;;;;-7.78;66.63;100339.09;6019375;23;20030;-80
2021/12/30 05:44:27;;;;;;;31.38;12.23;;;;;;;-8.33;65.06;100296.34;6067769;23;20015;-80
2021/12/30 05:46:53;;;;;;;27.98;12.05;;;;;;;-8.55;66.08;100296.41;6069252;23;20022;-80
2021/12/30 05:49:20;;;;;;;34.42;14.05;;;;;;;-8.40;65.95;100314.34;6068651;23;20050;-81
2021/12/30 05:51:46;;;;;;;33.20;12.93;;;;;;;-8.38;65.85;100300.16;6043735;23;20495;-78
2021/12/30 05:54:12;;;;;;;33.92;13.35;;;;;;;-8.30;65.07;100315.91;6043660;23;20023;-81
2021/12/30 05:56:37;;;;;;;31.17;13.20;;;;;;;-8.20;65.71;100336.00;6065160;23;20019;-80
2021/12/30 05:59:03;;;;;;;32.00;14.33;;;;;;;-8.14;65.33;100342.28;6045306;23;20094;-81
2021/12/30 06:01:29;;;;;;;35.87;13.60;;;;;;;-7.91;66.23;100342.34;6043032;23;20031;-78
2021/12/30 06:03:55;;;;;;;33.30;12.98;;;;;;;-7.67;66.20;100338.97;6044183;23;20549;-82
2021/12/30 06:06:23;;;;;;;40.22;14.73;;;;;;;-7.57;66.35;100317.00;6042768;23;20019;-79
2021/12/30 06:08:50;;;;;;;32.13;13.70;;;;;;;-7.56;65.77;100297.66;6066025;23;20098;-80
2021/12/30 06:11:17;;;;;;;32.70;13.57;;;;;;;-7.46;66.29;100309.31;6067272;23;20023;-80
2021/12/30 06:13:43;;;;;;;28.70;12.35;;;;;;;-7.20;66.66;100344.03;6067485;23;20189;-82
2021/12/30 06:16:08;;;;;;;38.30;13.63;;;;;;;-7.20;66.06;100335.59;6045654;23;20402;-81
2021/12/30 06:18:34;;;;;;;32.65;12.57;;;;;;;-7.09;65.74;100346.47;6066711;23;20072;-81
2021/12/30 06:21:00;;;;;;;30.27;12.52;;;;;;;-7.20;65.46;100345.69;6043868;23;20019;-80
2021/12/30 06:23:26;;;;;;;33.20;11.93;;;;;;;-7.22;66.25;100340.50;6050947;23;20029;-77
2021/12/30 06:25:52;;;;;;;27.23;11.32;;;;;;;-7.16;65.87;100335.91;6072935;23;20386;-79
2021/12/30 06:28:18;;;;;;;26.40;11.48;;;;;;;-7.08;65.43;100349.09;6046780;23;20030;-80
2021/12/30 06:30:43;;;;;;;27.60;11.25;;;;;;;-7.22;65.28;100327.00;6047494;23;20090;-80
2021/12/30 06:33:09;;;;;;;30.88;12.68;;;;;;;-6.94;65.86;100347.53;6056194;23;20015;-79
2021/12/30 06:35:35;;;;;;;29.73;11.50;;;;;;;-6.96;66.09;100331.34;6058107;23;20023;-80
2021/12/30 06:38:02;;;;;;;24.63;10.77;;;;;;;-6.74;65.29;100354.00;6042490;23;20378;-79
2021/12/30 06:40:29;;;;;;;28.88;10.82;;;;;;;-6.87;65.66;100323.50;6062641;23;20476;-80
2021/12/30 06:42:54;;;;;;;25.42;10.27;;;;;;;-6.68;65.62;100333.28;6102129;23;20046;-82
2021/12/30 06:45:20;;;;;;;22.92;10.40;;;;;;;-6.83;65.88;100293.44;6075539;23;20146;-80
2021/12/30 06:47:47;;;;;;;23.38;10.43;;;;;;;-6.39;65.43;100352.09;6077122;23;20416;-79
2021/12/30 06:50:15;;;;;;;28.92;11.38;;;;;;;-6.30;65.22;100339.19;6104381;23;20018;-79
2021/12/30 06:52:45;;;;;;;26.40;10.77;;;;;;;-6.20;64.93;100356.75;6100962;23;20018;-81
2021/12/30 06:55:12;;;;;;;24.70;10.45;;;;;;;-6.18;65.52;100342.53;6102431;23;20018;-83
2021/12/30 06:57:40;;;;;;;24.52;10.63;;;;;;;-6.10;65.04;100345.56;6076202;23;20014;-81
2021/12/30 07:00:09;;;;;;;21.30;9.90;;;;;;;-6.48;65.25;100295.75;6076395;23;20018;-80
2021/12/30 07:02:35;;;;;;;22.63;9.52;;;;;;;-6.44;65.14;100297.72;6100406;23;20018;-78
2021/12/30 07:05:03;;;;;;;24.95;9.38;;;;;;;-6.22;65.09;100330.44;6079502;23;20022;-80
2021/12/30 07:07:30;;;;;;;25.55;10.15;;;;;;;-6.17;65.24;100334.16;6098543;23;20022;-80
2021/12/30 07:09:55;;;;;;;32.67;12.52;;;;;;;-6.14;65.50;100333.47;6101574;23;20019;-80
2021/12/30 07:12:21;;;;;;;37.40;14.82;;;;;;;-6.19;64.48;100335.72;6100664;23;20073;-80
2021/12/30 07:14:49;;;;;;;29.60;12.32;;;;;;;-6.58;64.92;100324.66;6103564;23;20045;-80
2021/12/30 07:17:15;;;;;;;30.73;12.57;;;;;;;-6.74;64.62;100341.34;6106065;23;20022;-78
2021/12/30 07:19:43;;;;;;;35.92;12.90;;;;;;;-6.55;65.67;100335.84;6105072;23;20022;-81
2021/12/30 07:22:08;;;;;;;28.98;11.82;;;;;;;-6.53;65.06;100319.13;6104197;23;20094;-79
2021/12/30 07:24:38;;;;;;;31.65;11.75;;;;;;;-6.37;64.95;100328.63;6114093;23;20018;-80
2021/12/30 07:27:04;;;;;;;25.90;11.10;;;;;;;-6.37;63.66;100338.78;6088689;23;20342;-80
2021/12/30 07:29:30;;;;;;;25.80;11.18;;;;;;;-6.30;64.87;100356.94;6107958;23;20014;-79
2021/12/30 07:31:57;;;;;;;21.95;9.80;;;;;;;-6.32;64.80;100348.34;6107348;23;20018;-76
2021/12/30 07:34:22;;;;;;;20.35;9.73;;;;;;;-6.20;65.23;100354.22;6105620;23;20029;-79
2021/12/30 07:36:50;;;;;;;21.48;9.95;;;;;;;-6.33;64.54;100326.31;6076960;23;20133;-78
2021/12/30 07:39:16;;;;;;;23.75;9.82;;;;;;;-6.21;64.91;100345.75;6077580;23;20022;-80
2021/12/30 07:41:42;;;;;;;24.52;9.85;;;;;;;-6.38;65.34;100293.94;6076776;23;20086;-79
2021/12/30 07:44:09;;;;;;;28.33;11.65;;;;;;;-6.07;65.43;100328.03;6089465;23;20137;-80
2021/12/30 07:46:34;;;;;;;25.10;10.57;;;;;;;-6.13;64.58;100328.53;6073042;23;20041;-80
2021/12/30 07:49:01;;;;;;;22.25;10.63;;;;;;;-6.32;64.69;100301.06;6094012;23;20461;-80
2021/12/30 07:51:28;;;;;;;25.98;10.45;;;;;;;-5.96;64.95;100344.81;6070121;23;20689;-80
2021/12/30 07:54:17;;;;;;;26.92;11.52;;;;;;;-5.85;64.40;100350.59;6101274;23;20039;-78
2021/12/30 07:56:43;;;;;;;26.95;12.98;;;;;;;-5.83;64.51;100354.09;6071296;23;20023;-80
2021/12/30 07:59:09;;;;;;;23.65;10.20;;;;;;;-5.79;64.87;100362.78;6068785;23;20093;-79
2021/12/30 08:01:34;;;;;;;26.05;10.52;;;;;;;-5.97;64.86;100340.53;6071725;23;20029;-81
2021/12/30 08:04:01;;;;;;;26.13;11.20;;;;;;;-5.75;65.20;100354.63;6070579;23;20018;-82
2021/12/30 08:06:28;;;;;;;28.65;12.02;;;;;;;-5.95;64.74;100300.91;6070963;23;20023;-80
2021/12/30 08:08:55;;;;;;;32.65;13.00;;;;;;;-5.45;64.95;100365.88;6075143;23;20085;-79
2021/12/30 08:11:21;;;;;;;31.25;12.75;;;;;;;-5.33;64.84;100359.81;6073270;23;20077;-81
2021/12/30 08:13:47;;;;;;;32.70;13.35;;;;;;;-5.23;64.76;100356.19;6070028;23;20436;-80
2021/12/30 08:16:14;;;;;;;29.02;11.30;;;;;;;-5.11;64.30;100357.00;6073419;23;20039;-82
2021/12/30 08:18:41;;;;;;;23.42;11.18;;;;;;;-5.09;64.09;100360.50;6069180;23;20026;-78
2021/12/30 08:21:09;;;;;;;24.25;10.38;;;;;;;-5.23;64.76;100349.47;6072934;23;20018;-80
2021/12/30 08:23:35;;;;;;;27.65;11.23;;;;;;;-5.17;64.62;100336.28;6076034;23;20034;-80
2021/12/30 08:26:05;;;;;;;24.33;10.60;;;;;;;-4.83;64.47;100348.53;6098398;23;20037;-79
2021/12/30 08:28:34;;;;;;;21.58;10.02;;;;;;;-5.00;64.59;100332.28;6099991;23;20019;-80
2021/12/30 08:31:03;;;;;;;21.83;9.23;;;;;;;-5.01;64.25;100331.38;6109489;23;20023;-82
2021/12/30 08:33:28;;;;;;;22.73;10.20;;;;;;;-4.98;64.36;100338.34;6100321;23;20022;-79
2021/12/30 08:35:54;;;;;;;23.33;9.88;;;;;;;-5.09;65.09;100309.75;6077549;23;20077;-79
2021/12/30 08:38:23;;;;;;;22.65;10.75;;;;;;;-4.84;64.47;100344.22;6094999;23;20516;-80
2021/12/30 08:40:50;;;;;;;23.48;11.13;;;;;;;-4.77;64.46;100345.50;6085598;23;20022;-81
2021/12/30 08:43:17;;;;;;;22.27;9.50;;;;;;;-4.74;64.39;100327.91;6075281;23;20023;-80
2021/12/30 08:45:47;;;;;;;21.50;9.57;;;;;;;-4.61;64.06;100339.69;6075034;23;20017;-81
2021/12/30 08:48:15;;;;;;;23.77;10.38;;;;;;;-4.79;64.59;100303.91;6100359;23;20018;-80
2021/12/30 08:50:47;;;;;;;21.77;9.40;;;;;;;-4.53;64.21;100323.25;6104805;23;20471;-78
2021/12/30 08:53:15;;;;;;;22.30;8.82;;;;;;;-4.64;63.84;100340.38;6091915;23;20030;-80
2021/12/30 08:55:45;;;;;;;25.08;10.23;;;;;;;-4.81;64.60;100306.34;6098610;23;20045;-81
2021/12/30 08:58:25;;;;;;;23.55;10.68;;;;;;;-4.56;64.46;100334.13;6099730;23;20050;-80
2021/12/30 09:00:54;;;;;;;23.48;10.05;;;;;;;-4.47;64.19;100327.81;6074673;23;20019;-80
2021/12/30 09:03:19;;;;;;;25.50;10.57;;;;;;;-4.48;64.67;100314.25;6098628;23;20425;-80
2021/12/30 09:05:45;;;;;;;28.10;10.73;;;;;;;-4.43;64.34;100309.44;6077350;23;20082;-79
2021/12/30 09:08:11;;;;;;;22.17;9.48;;;;;;;-4.52;64.36;100283.50;6098954;23;20107;-80
2021/12/30 09:10:40;;;;;;;22.10;10.10;;;;;;;-4.25;63.95;100313.06;6076355;23;20022;-81
2021/12/30 09:13:09;;;;;;;24.30;10.30;;;;;;;-4.56;64.17;100252.81;6105450;23;20014;-82
2021/12/30 09:15:46;;;;;;;26.90;11.05;;;;;;;-4.72;64.27;100217.13;6075473;23;20022;-81
2021/12/30 09:18:12;;;;;;;23.65;9.90;;;;;;;-4.06;64.45;100315.81;6100097;23;20018;-79
2021/12/30 09:20:40;;;;;;;21.98;10.73;;;;;;;-4.06;64.14;100311.59;6103221;23;20059;-81
2021/12/30 09:23:09;;;;;;;24.10;10.75;;;;;;;-4.11;64.42;100302.84;6079043;23;20022;-81
2021/12/30 09:25:39;;;;;;;23.70;11.13;;;;;;;-3.88;64.43;100324.50;6100904;23;20029;-80
2021/12/30 09:28:11;;;;;;;28.83;11.75;;;;;;;-3.98;64.67;100291.72;6051022;23;20018;-81
2021/12/30 09:30:45;;;;;;;46.53;15.73;;;;;;;-4.93;63.76;100138.91;6075131;23;20152;-81
2021/12/30 09:36:28;;;;;;;30.67;12.40;;;;;;;-4.24;64.43;100260.59;6074499;23;20034;-82
2021/12/30 09:38:54;;;;;;;30.02;12.70;;;;;;;-3.68;64.98;100319.69;6072255;23;20018;-80
2021/12/30 09:41:20;;;;;;;32.75;13.18;;;;;;;-3.65;63.69;100328.38;5998729;23;20015;-80
2021/12/30 09:43:49;;;;;;;34.33;13.05;;;;;;;-3.62;64.16;100320.03;6046867;23;20019;-81
2021/12/30 09:46:17;;;;;;;26.77;11.82;;;;;;;-3.72;64.53;100299.94;6025500;23;20067;-80
2021/12/30 09:48:52;;;;;;;26.90;12.18;;;;;;;-3.82;64.27;100261.28;6049614;23;20109;-79
2021/12/30 09:51:27;;;;;;;30.88;12.07;;;;;;;-4.60;63.86;100136.56;6073052;23;20162;-79
2021/12/30 09:54:14;;;;;;;;;;;;;;;;;;;;;
2021/12/30 09:57:08;;;;;;;26.42;11.18;;;;;;;-3.44;64.08;100298.94;6034634;23;20074;-81
2021/12/30 09:59:43;;;;;;;25.70;12.00;;;;;;;-4.10;63.81;100180.03;6081161;23;20023;-80
2021/12/30 10:02:22;;;;;;;28.88;11.70;;;;;;;-3.44;63.73;100296.41;6040345;23;20037;-82
2021/12/30 10:05:07;;;;;;;26.30;11.70;;;;;;;-3.48;64.09;100297.91;6079712;23;20033;-81
2021/12/30 10:07:39;;;;;;;26.65;11.30;;;;;;;-3.74;63.67;100249.00;6073411;23;20018;-83
2021/12/30 10:10:33;;;;;;;25.23;10.40;;;;;;;-3.69;63.75;100303.56;6025009;23;20018;-78
2021/12/30 10:13:20;;;;;;;23.30;10.85;;;;;;;-3.76;63.33;100293.81;6047740;23;20049;-81
2021/12/30 10:15:51;;;;;;;25.13;11.27;;;;;;;-3.77;63.92;100289.50;6006237;23;20057;-81
2021/12/30 10:18:41;;;;;;;29.60;12.30;;;;;;;-3.87;64.55;100269.44;6047895;23;20023;-81
2021/12/30 10:21:27;;;;;;;25.15;10.43;;;;;;;-4.21;63.70;100212.47;6075902;23;20029;-82
2021/12/30 10:24:06;;;;;;;25.25;11.30;;;;;;;-3.96;64.47;100246.88;6063380;23;20019;-82
2021/12/30 10:26:58;;;;;;;28.00;11.98;;;;;;;-3.68;64.28;100284.94;6084981;23;20127;-81
2021/12/30 10:29:50;;;;;;;29.05;10.85;;;;;;;-3.98;63.80;100241.72;6058310;23;20011;-80
2021/12/30 10:32:18;;;;;;;23.27;11.05;;;;;;;-3.78;64.29;100280.13;6038528;23;20018;-80
2021/12/30 10:38:27;;;;;;;28.40;12.02;;;;;;;-3.52;64.37;100273.06;6081376;23;20015;-79
2021/12/30 10:41:04;;;;;;;22.58;10.23;;;;;;;-3.45;64.20;100277.72;6036170;23;20026;-79
2021/12/30 10:44:13;;;;;;;30.08;12.25;;;;;;;-4.64;63.81;100077.91;6052884;23;20019;-81
2021/12/30 10:47:57;;;;;;;28.40;11.52;;;;;;;-3.48;64.21;100252.09;5954093;23;20022;-83
2021/12/30 10:51:05;;;;;;;34.13;13.45;;;;;;;-3.51;64.59;100251.94;6025088;23;20018;-84
2021/12/30 10:53:59;;;;;;;28.05;13.13;;;;;;;-3.73;64.55;100220.22;6024976;23;20053;-81
2021/12/30 10:56:36;;;;;;;26.13;11.15;;;;;;;-4.32;64.12;100111.84;6073563;23;20042;-81
2021/12/30 10:59:12;;;;;;;26.05;10.98;;;;;;;-4.24;64.58;100111.47;6047976;23;20019;-81
2021/12/30 11:05:31;;;;;;;30.13;12.23;;;;;;;-3.49;64.30;100241.03;6075509;23;20444;-81
2021/12/30 11:08:00;;;;;;;26.20;12.20;;;;;;;-3.52;63.48;100261.22;6051078;23;20033;-81
2021/12/30 11:10:32;;;;;;;25.67;11.23;;;;;;;-3.98;64.40;100144.25;6086546;23;20015;-82
2021/12/30 11:13:11;;;;;;;27.23;11.65;;;;;;;-3.36;64.72;100219.66;6050814;23;20018;-80
2021/12/30 11:15:42;;;;;;;28.05;11.65;;;;;;;-3.19;64.34;100245.16;6070131;23;20018;-79
2021/12/30 11:18:18;;;;;;;23.48;11.27;;;;;;;-3.61;63.88;100174.22;6021944;23;20452;-81
2021/12/30 11:20:51;;;;;;;27.25;12.07;;;;;;;-3.19;64.63;100250.25;6023330;23;20015;-80
2021/12/30 11:23:17;;;;;;;22.08;11.38;;;;;;;-3.29;64.08;100243.78;6068956;23;20030;-80
2021/12/30 11:25:44;;;;;;;27.17;11.23;;;;;;;-3.34;64.20;100246.09;6073119;23;20023;-80
2021/12/30 11:28:14;;;;;;;29.38;12.30;;;;;;;-4.88;64.27;100065.56;6050949;23;20054;-79
2021/12/30 11:30:41;;;;;;;30.08;12.65;;;;;;;-4.42;64.69;100102.84;6081258;23;20114;-81
2021/12/30 11:33:08;;;;;;;29.42;12.32;;;;;;;-3.45;65.02;100251.38;6027390;23;20105;-81